Georgetown, Kentucky
Current Conditions -  °F | °C
As of 11:54 AM on Thursday 30 Oct 2014 (Local Time) from KLEX Reporting Station
Overcast Overcast  
Wind Chill: 51°   Ceiling: 3000
Heat Index: 51°   Visibility: 10mi
Dew Point: 35°   Wind: 6mph
Humidity: 54%   Direction: 80°E
Pressure: 30.17"   Gusts: NA
Location:  38.21°N, 84.56°W
Report Text: KLEX 301554Z 08005KT 10SM OVC030 11/02 A3017 RMK AO2 SLP216 T01060017
Loading
Personal Weather Stations






























Interactive Weather Map
Tropical Storm Tracking
New forecast layout! Learn more

10-Day Weather Forecast

Advertisements
Track Severe Weather on mobile